Terminal Aerodrome Forecast
Issued by NWS

Home | Current Version | Previous Version | Graphics & Text | Print | Product List | Glossary On
Versions: 1 2 3 4 5 6 7 8 9 10 11 12 13 14 15 16 17 18 19 20 21 22 23 24 25 26 27 28 29
000
FTUS43 KLOT 130905 AAA
TAFMDW
TAF AMD
KMDW 130905Z 1309/1412 18008KT P6SM BKN035 OVC080
     FM131100 17011KT P6SM OVC035
      TEMPO 1311/1314 4SM -SN SCT020 OVC030
     FM131600 19013KT P6SM FEW030 OVC060
     FM131800 23014G21KT 6SM -SN OVC030
      TEMPO 1319/1321 1 1/2SM -SN BKN015
     FM132100 31014G26KT P6SM OVC018
     FM140000 35016G28KT 6SM -SHSN OVC020
      TEMPO 1402/1405 02012G18KT 1 1/2SM -SN BKN015
     FM141000 34013G20KT P6SM SCT035=

USA.gov is the U.S. government's official web portal to all federal, state and local government web resources and services.